createdAt,value
2018-11-22T10:36:04.085Z,12.56958
2018-11-22T10:36:24.729Z,12.56958
2018-11-22T10:36:45.404Z,12.589722
2018-11-22T10:37:06.405Z,12.599792
2018-11-22T10:37:26.326Z,12.619934
2018-11-22T10:37:46.303Z,12.650146
2018-11-22T10:38:06.137Z,12.680359
2018-11-22T10:38:26.110Z,12.650146
2018-11-22T10:38:45.905Z,12.650146
2018-11-22T10:39:05.823Z,12.650146
2018-11-22T10:39:25.643Z,12.680359
2018-11-22T10:39:45.496Z,12.670288
2018-11-22T10:40:05.377Z,12.7005
2018-11-22T10:40:25.246Z,12.740784
2018-11-22T10:41:14.176Z,12.82135
2018-11-22T10:41:34.068Z,12.851562
2018-11-22T10:41:53.908Z,12.861633
2018-11-22T10:42:14.151Z,12.871704
2018-11-22T10:42:34.524Z,12.901917
2018-11-22T10:42:54.321Z,12.922058
2018-11-22T10:43:14.141Z,13.002625
2018-11-22T10:43:34.037Z,13.032837
2018-11-22T10:43:53.638Z,13.07312
2018-11-22T10:44:13.352Z,13.153687
2018-11-22T10:44:33.561Z,13.204041
2018-11-22T10:44:54.351Z,13.224182
2018-11-22T10:45:14.640Z,13.284607
2018-11-22T10:45:34.273Z,13.254395
2018-11-22T10:45:54.095Z,13.334961
2018-11-22T10:46:13.957Z,13.375244
2018-11-22T10:46:33.928Z,13.435669
2018-11-22T10:46:53.574Z,13.475952
2018-11-22T10:47:13.214Z,13.536377
2018-11-22T10:47:32.863Z,13.546448
2018-11-22T10:47:52.571Z,13.596802
2018-11-22T10:48:13.222Z,13.586731
2018-11-22T10:48:33.008Z,13.596802
2018-11-22T10:48:54.238Z,13.616943
2018-11-22T10:49:14.044Z,13.596802
2018-11-22T10:49:33.854Z,13.616943
2018-11-22T10:49:54.046Z,13.627014
2018-11-22T10:50:14.106Z,13.596802
2018-11-22T10:50:34.118Z,13.616943
2018-11-22T10:50:54.173Z,13.627014
2018-11-22T10:51:14.643Z,13.627014
2018-11-22T10:51:35.034Z,13.616943
2018-11-22T10:51:55.202Z,13.637085
2018-11-22T10:52:15.240Z,13.657227
2018-11-22T10:52:35.555Z,13.687439
2018-11-22T10:52:56.320Z,13.707581
2018-11-22T10:53:16.208Z,13.707581
2018-11-22T10:53:36.070Z,13.687439
2018-11-22T10:53:56.976Z,13.667297
2018-11-22T10:54:16.887Z,13.667297
2018-11-22T10:54:36.758Z,13.657227
2018-11-22T10:54:56.514Z,13.627014
2018-11-22T10:55:17.349Z,13.637085
2018-11-22T10:55:37.595Z,13.637085
2018-11-22T10:55:57.334Z,13.637085
2018-11-22T10:56:18.230Z,13.627014
2018-11-22T10:56:38.057Z,13.657227
2018-11-22T10:56:57.862Z,13.667297
2018-11-22T10:57:17.620Z,13.667297
2018-11-22T10:57:37.363Z,13.657227
2018-11-22T10:57:57.169Z,13.667297
2018-11-22T10:58:16.971Z,13.657227
2018-11-22T10:58:36.823Z,13.637085
2018-11-22T10:58:56.692Z,13.637085
2018-11-22T10:59:16.963Z,13.657227
2018-11-22T10:59:37.674Z,13.657227
2018-11-22T10:59:57.559Z,13.687439
2018-11-22T11:00:17.500Z,13.667297
2018-11-22T11:00:37.328Z,13.667297
2018-11-22T11:00:57.324Z,13.657227
2018-11-22T11:01:17.109Z,13.667297
2018-11-22T11:01:37.066Z,13.687439
2018-11-22T11:01:56.820Z,13.687439
2018-11-22T11:02:16.897Z,13.637085
2018-11-22T11:02:36.836Z,13.616943
2018-11-22T11:02:56.871Z,13.516235
2018-11-22T11:03:16.781Z,13.475952
2018-11-22T11:03:36.659Z,13.44574
2018-11-22T11:03:56.684Z,13.435669
2018-11-22T11:04:16.456Z,13.415527
2018-11-22T11:04:36.416Z,13.405457
2018-11-22T11:04:56.287Z,13.385315
2018-11-22T11:05:16.177Z,13.375244
2018-11-22T11:05:35.998Z,13.355103
2018-11-22T11:05:56.012Z,13.334961
2018-11-22T11:06:15.847Z,13.334961
2018-11-22T11:06:35.934Z,13.385315
2018-11-22T11:06:55.887Z,13.385315
2018-11-22T11:07:16.849Z,13.405457
2018-11-22T11:07:36.608Z,13.415527
2018-11-22T11:07:56.507Z,13.44574
2018-11-22T11:08:16.596Z,13.455811
2018-11-22T11:08:36.274Z,13.475952
2018-11-22T11:08:56.871Z,13.486023
2018-11-22T11:09:16.639Z,13.516235
2018-11-22T11:09:36.456Z,13.536377
2018-11-22T11:09:56.289Z,13.586731
2018-11-22T11:10:16.773Z,13.586731
2018-11-22T11:10:36.633Z,13.616943
2018-11-22T11:10:56.660Z,13.627014
2018-11-22T11:11:16.620Z,13.637085
2018-11-22T11:11:37.541Z,13.657227
2018-11-22T11:11:58.152Z,13.667297
2018-11-22T11:12:18.582Z,13.657227
2018-11-22T11:12:41.367Z,13.69751
2018-11-22T11:13:01.429Z,13.687439
2018-11-22T11:13:21.534Z,13.687439
2018-11-22T11:13:41.359Z,13.667297
2018-11-22T11:14:01.124Z,13.667297
2018-11-22T11:14:20.957Z,13.69751
2018-11-22T11:14:40.754Z,13.727722
2018-11-22T11:15:01.509Z,13.707581
2018-11-22T11:15:21.549Z,13.727722
2018-11-22T11:15:41.442Z,13.707581
2018-11-22T11:16:01.396Z,13.747864
2018-11-22T11:16:21.407Z,13.707581
2018-11-22T11:16:41.263Z,13.727722
2018-11-22T11:17:01.102Z,13.747864
2018-11-22T11:17:20.873Z,13.747864
2018-11-22T11:17:40.869Z,13.747864
2018-11-22T11:18:00.877Z,13.727722
2018-11-22T11:18:21.134Z,13.768005
2018-11-22T11:18:40.875Z,13.778076
2018-11-22T11:19:01.387Z,13.778076
2018-11-22T11:19:21.309Z,13.808289
2018-11-22T11:19:42.161Z,13.818359
2018-11-22T11:20:01.980Z,13.808289
2018-11-22T11:20:22.864Z,13.808289
2018-11-22T11:20:42.688Z,13.838501
2018-11-22T11:21:03.755Z,13.838501
2018-11-22T11:21:24.205Z,13.808289
2018-11-22T11:21:44.252Z,13.788147
2018-11-22T11:22:04.342Z,13.788147
2018-11-22T11:22:26.758Z,13.768005
2018-11-22T11:22:46.705Z,13.778076
2018-11-22T11:23:06.472Z,13.788147
2018-11-22T11:23:26.238Z,13.808289
2018-11-22T11:23:45.939Z,13.788147
2018-11-22T11:24:05.764Z,13.788147
2018-11-22T11:24:26.205Z,13.818359
2018-11-22T11:24:46.293Z,13.838501
2018-11-22T11:25:06.416Z,13.838501
2018-11-22T11:25:26.525Z,13.818359
2018-11-22T11:25:46.284Z,13.818359
2018-11-22T11:26:06.178Z,13.848572
2018-11-22T11:26:27.739Z,13.848572
2018-11-22T11:26:48.606Z,13.868713
2018-11-22T11:27:10.851Z,13.868713
2018-11-22T11:27:30.803Z,13.868713
2018-11-22T11:27:50.709Z,13.868713
2018-11-22T11:28:10.560Z,13.878784
2018-11-22T11:28:30.671Z,13.878784
2018-11-22T11:28:50.590Z,13.908997
2018-11-22T11:29:12.682Z,13.919067
2018-11-22T11:29:31.171Z,13.919067
2018-11-22T11:29:51.091Z,13.908997
2018-11-22T11:30:10.911Z,13.919067
2018-11-22T11:30:30.870Z,13.908997
2018-11-22T11:30:51.000Z,13.919067
2018-11-22T11:31:10.788Z,13.919067
2018-11-22T11:31:30.658Z,13.919067
2018-11-22T11:31:50.569Z,13.94928
2018-11-22T11:32:10.485Z,13.94928
2018-11-22T11:32:30.351Z,13.959351
2018-11-22T11:32:50.552Z,13.969421
2018-11-22T11:33:10.826Z,13.94928
2018-11-22T11:33:30.552Z,13.989563
2018-11-22T11:33:51.438Z,13.989563
2018-11-22T11:34:11.166Z,14.019775
2018-11-22T11:34:30.921Z,14.019775
2018-11-22T11:34:51.796Z,14.029846
2018-11-22T11:35:12.579Z,13.999634
2018-11-22T11:35:32.423Z,14.019775
2018-11-22T11:35:52.196Z,14.019775
2018-11-22T11:36:17.756Z,14.019775
2018-11-22T11:36:35.086Z,14.019775
2018-11-22T11:36:54.945Z,14.029846
2018-11-22T11:37:14.810Z,14.019775
2018-11-22T11:37:34.692Z,14.029846
2018-11-22T11:37:54.439Z,14.019775
2018-11-22T11:38:14.334Z,14.029846
2018-11-22T11:38:34.072Z,14.039917
2018-11-22T11:38:53.888Z,14.029846
2018-11-22T11:39:13.751Z,14.060059
2018-11-22T11:39:33.610Z,14.060059
2018-11-22T11:39:53.469Z,14.060059
2018-11-22T11:40:15.208Z,14.039917
2018-11-22T11:40:35.144Z,14.029846
2018-11-22T11:40:54.915Z,14.039917
2018-11-22T11:41:14.807Z,14.060059
2018-11-22T11:41:34.677Z,14.039917
2018-11-22T11:41:54.564Z,14.060059
2018-11-22T11:42:14.378Z,14.090271
2018-11-22T11:42:34.272Z,14.100342
2018-11-22T11:42:54.060Z,14.090271
2018-11-22T11:43:13.873Z,14.100342
2018-11-22T11:43:33.682Z,14.120483
2018-11-22T11:43:53.644Z,14.120483
2018-11-22T11:44:13.674Z,14.150696
2018-11-22T11:44:33.537Z,14.170837
2018-11-22T11:44:53.424Z,14.180908
2018-11-22T11:45:13.273Z,14.150696
2018-11-22T11:45:33.002Z,14.180908
2018-11-22T11:45:52.879Z,14.150696
2018-11-22T11:46:12.714Z,14.180908
2018-11-22T11:46:32.548Z,14.180908
2018-11-22T11:46:52.346Z,14.170837
2018-11-22T11:47:12.105Z,14.180908
2018-11-22T11:47:31.913Z,14.180908
2018-11-22T11:47:51.663Z,14.180908
2018-11-22T11:48:11.490Z,14.180908
2018-11-22T11:48:31.490Z,14.20105
2018-11-22T11:48:51.278Z,14.20105
2018-11-22T11:49:11.151Z,14.20105
2018-11-22T11:49:30.910Z,14.211121
2018-11-22T11:49:50.783Z,14.221191
2018-11-22T11:50:10.854Z,14.221191
2018-11-22T11:50:30.688Z,14.211121
2018-11-22T11:50:51.074Z,14.211121
2018-11-22T11:51:13.385Z,14.211121
2018-11-22T11:51:33.245Z,14.211121
2018-11-22T11:51:53.105Z,14.20105
2018-11-22T11:52:12.997Z,14.20105
2018-11-22T11:52:32.875Z,14.221191
2018-11-22T11:52:52.831Z,14.241333
2018-11-22T11:53:12.632Z,14.241333
2018-11-22T11:53:41.223Z,14.20105
2018-11-22T11:53:58.427Z,14.180908
2018-11-22T11:54:19.264Z,14.180908
2018-11-22T11:54:39.046Z,14.170837
2018-11-22T11:54:58.852Z,14.150696
2018-11-22T11:55:18.761Z,14.150696
2018-11-22T11:55:38.527Z,14.180908
2018-11-22T11:55:58.378Z,14.150696
2018-11-22T11:56:18.126Z,14.150696
2018-11-22T11:56:37.957Z,14.120483
2018-11-22T11:56:57.852Z,14.140625
2018-11-22T11:57:17.663Z,14.150696
2018-11-22T11:57:37.489Z,14.150696
2018-11-22T11:57:57.364Z,14.150696
2018-11-22T11:58:17.308Z,14.150696
2018-11-22T11:58:37.044Z,14.150696
2018-11-22T11:58:56.809Z,14.150696
2018-11-22T11:59:16.667Z,14.170837
2018-11-22T11:59:37.421Z,14.170837
2018-11-22T11:59:57.291Z,14.180908
2018-11-22T12:00:17.018Z,14.180908
2018-11-22T12:00:37.234Z,14.180908
2018-11-22T12:00:56.995Z,14.211121
2018-11-22T12:01:16.701Z,14.180908
2018-11-22T12:01:36.564Z,14.211121
2018-11-22T12:01:56.399Z,14.180908
2018-11-22T12:02:16.215Z,14.180908
2018-11-22T12:02:36.082Z,14.150696
2018-11-22T12:02:55.999Z,14.180908
2018-11-22T12:03:15.829Z,14.150696
2018-11-22T12:03:35.723Z,14.180908
2018-11-22T12:03:55.559Z,14.170837
2018-11-22T12:04:15.429Z,14.170837
2018-11-22T12:04:36.254Z,14.180908
2018-11-22T12:04:57.133Z,14.170837
2018-11-22T12:05:17.128Z,14.170837
2018-11-22T12:05:36.940Z,14.150696
2018-11-22T12:05:56.728Z,14.150696
2018-11-22T12:06:16.667Z,14.150696
2018-11-22T12:06:36.402Z,14.170837
2018-11-22T12:06:56.350Z,14.180908
2018-11-22T12:07:16.117Z,14.20105
2018-11-22T12:07:35.931Z,14.20105
2018-11-22T12:07:56.014Z,14.211121
2018-11-22T12:08:15.835Z,14.221191
2018-11-22T12:08:35.675Z,14.241333
2018-11-22T12:08:55.484Z,14.251404
2018-11-22T12:09:15.533Z,14.241333
2018-11-22T12:09:35.348Z,14.251404
2018-11-22T12:09:56.251Z,14.241333
2018-11-22T12:10:15.992Z,14.241333
2018-11-22T12:10:35.810Z,14.241333
2018-11-22T12:10:55.577Z,14.241333
2018-11-22T12:11:16.355Z,14.251404
2018-11-22T12:11:36.231Z,14.241333
2018-11-22T12:11:56.298Z,14.221191
2018-11-22T12:12:16.155Z,14.241333
2018-11-22T12:12:35.920Z,14.271545
2018-11-22T12:12:55.721Z,14.251404
2018-11-22T12:13:15.690Z,14.291687
2018-11-22T12:13:35.538Z,14.281616
2018-11-22T12:13:55.398Z,14.271545
2018-11-22T12:14:15.292Z,14.281616
2018-11-22T12:14:36.434Z,14.271545
2018-11-22T12:14:55.861Z,14.281616
2018-11-22T12:15:16.644Z,14.251404
2018-11-22T12:15:36.501Z,14.291687
2018-11-22T12:15:57.454Z,14.291687
2018-11-22T12:16:17.529Z,14.291687
2018-11-22T12:16:37.409Z,14.291687
2018-11-22T12:16:57.299Z,14.33197
2018-11-22T12:17:17.107Z,14.321899
2018-11-22T12:17:36.965Z,14.33197
2018-11-22T12:17:56.820Z,14.33197
2018-11-22T12:18:16.667Z,14.352112
2018-11-22T12:18:36.877Z,14.362183
2018-11-22T12:18:57.406Z,14.33197
2018-11-22T12:19:17.191Z,14.33197
2018-11-22T12:19:36.974Z,14.291687
2018-11-22T12:19:56.581Z,14.321899
2018-11-22T12:20:16.208Z,14.291687
2018-11-22T12:20:35.818Z,14.291687
2018-11-22T12:20:55.427Z,14.33197
2018-11-22T12:21:15.059Z,14.362183
2018-11-22T12:21:34.716Z,14.362183
2018-11-22T12:21:54.712Z,14.362183
2018-11-22T12:22:15.650Z,14.362183
2018-11-22T12:22:36.278Z,14.362183
2018-11-22T12:22:55.901Z,14.392395
2018-11-22T12:23:15.704Z,14.372253
2018-11-22T12:23:35.341Z,14.392395
2018-11-22T12:23:54.952Z,14.372253
2018-11-22T12:24:15.018Z,14.372253
2018-11-22T12:24:35.381Z,14.372253
2018-11-22T12:24:55.013Z,14.392395
2018-11-22T12:25:14.631Z,14.402466
2018-11-22T12:25:34.244Z,14.402466
2018-11-22T12:25:53.885Z,14.422607
2018-11-22T12:26:13.679Z,14.402466
2018-11-22T12:26:34.506Z,14.392395
2018-11-22T12:26:55.162Z,14.402466
2018-11-22T12:27:14.798Z,14.422607
2018-11-22T12:27:35.408Z,14.422607
2018-11-22T12:27:55.031Z,14.402466
2018-11-22T12:28:15.241Z,14.372253
2018-11-22T12:28:35.399Z,14.392395
2018-11-22T12:28:55.106Z,14.392395
2018-11-22T12:29:14.724Z,14.362183
2018-11-22T12:29:34.342Z,14.392395
2018-11-22T12:29:54.089Z,14.362183
2018-11-22T12:30:14.125Z,14.33197
2018-11-22T12:30:33.772Z,14.33197
2018-11-22T12:30:53.401Z,14.352112
2018-11-22T12:31:14.085Z,14.321899
2018-11-22T12:31:33.740Z,14.33197
2018-11-22T12:31:53.430Z,14.33197
2018-11-22T12:32:13.119Z,14.352112
2018-11-22T12:32:32.758Z,14.352112
2018-11-22T12:32:52.463Z,14.352112
2018-11-22T12:33:12.077Z,14.33197
2018-11-22T12:33:31.722Z,14.352112
2018-11-22T12:33:51.397Z,14.321899
2018-11-22T12:34:11.071Z,14.321899
2018-11-22T12:34:31.829Z,14.291687
2018-11-22T12:34:51.544Z,14.352112
2018-11-22T12:35:11.194Z,14.352112
2018-11-22T12:35:30.824Z,14.372253
2018-11-22T12:35:50.430Z,14.392395
2018-11-22T12:36:10.161Z,14.402466
2018-11-22T12:36:29.837Z,14.392395
2018-11-22T12:36:49.583Z,14.422607
2018-11-22T12:37:09.326Z,14.422607
2018-11-22T12:37:28.951Z,14.432678
2018-11-22T12:37:49.627Z,14.432678
2018-11-22T12:38:09.283Z,14.45282
2018-11-22T12:38:29.596Z,14.462891
2018-11-22T12:38:50.192Z,14.472961
2018-11-22T12:39:10.032Z,14.462891
2018-11-22T12:39:29.650Z,14.45282
2018-11-22T12:39:49.263Z,14.422607
2018-11-22T12:40:08.884Z,14.462891
2018-11-22T12:40:28.544Z,14.422607
2018-11-22T12:40:49.266Z,14.432678
2018-11-22T12:41:08.905Z,14.45282
2018-11-22T12:41:28.640Z,14.45282
2018-11-22T12:41:48.389Z,14.45282
2018-11-22T12:42:08.149Z,14.462891
2018-11-22T12:42:27.768Z,14.503174
2018-11-22T12:42:47.407Z,14.472961
2018-11-22T12:43:07.228Z,14.503174
2018-11-22T12:43:26.848Z,14.513245
2018-11-22T12:43:46.647Z,14.472961
2018-11-22T12:44:06.256Z,14.503174
2018-11-22T12:44:25.873Z,14.472961
2018-11-22T12:44:45.487Z,14.472961
2018-11-22T12:45:05.162Z,14.462891
2018-11-22T12:45:25.906Z,14.503174
2018-11-22T12:45:45.519Z,14.472961
2018-11-22T12:46:05.136Z,14.503174
2018-11-22T12:46:24.786Z,14.503174
2018-11-22T12:46:44.420Z,14.462891
2018-11-22T12:47:04.031Z,14.462891
2018-11-22T12:47:24.724Z,14.432678
2018-11-22T12:47:44.760Z,14.392395
2018-11-22T12:48:04.874Z,14.402466
2018-11-22T12:48:24.484Z,14.392395
2018-11-22T12:48:44.109Z,14.422607
2018-11-22T12:49:03.774Z,14.422607
2018-11-22T12:49:23.694Z,14.45282
2018-11-22T12:49:45.408Z,14.432678
2018-11-22T12:50:05.041Z,14.422607
2018-11-22T12:50:24.646Z,14.45282
2018-11-22T12:50:44.440Z,14.462891
2018-11-22T12:51:04.370Z,14.45282
2018-11-22T12:51:24.197Z,14.472961
2018-11-22T12:51:44.007Z,14.472961
2018-11-22T12:52:03.683Z,14.472961
2018-11-22T12:52:23.651Z,14.472961
2018-11-22T12:52:43.403Z,14.513245
2018-11-22T12:53:02.998Z,14.503174
2018-11-22T12:53:22.854Z,14.503174
2018-11-22T12:53:42.706Z,14.503174
2018-11-22T12:54:02.701Z,14.523315
2018-11-22T12:54:22.601Z,14.523315
2018-11-22T12:54:42.266Z,14.523315
2018-11-22T12:55:01.888Z,14.513245
2018-11-22T12:55:21.593Z,14.523315
2018-11-22T12:55:41.377Z,14.503174
2018-11-22T12:56:02.006Z,14.462891
2018-11-22T12:56:21.920Z,14.422607
2018-11-22T12:56:42.594Z,14.432678
2018-11-22T12:57:02.276Z,14.45282
2018-11-22T12:57:21.929Z,14.432678
2018-11-22T12:57:41.599Z,14.432678
2018-11-22T12:58:01.465Z,14.422607
2018-11-22T12:58:21.112Z,14.45282
2018-11-22T12:58:40.884Z,14.45282
2018-11-22T12:59:00.603Z,14.462891
2018-11-22T12:59:20.357Z,14.462891
2018-11-22T12:59:39.970Z,14.45282
2018-11-22T13:00:00.588Z,14.462891
2018-11-22T13:00:20.192Z,14.462891
2018-11-22T13:00:39.873Z,14.462891
2018-11-22T13:00:59.495Z,14.45282
2018-11-22T13:01:19.157Z,14.472961
2018-11-22T13:01:38.943Z,14.462891
2018-11-22T13:01:58.539Z,14.45282
2018-11-22T13:02:18.704Z,14.422607
2018-11-22T13:02:37.853Z,14.45282
2018-11-22T13:02:57.570Z,14.422607
2018-11-22T13:03:17.830Z,14.432678
2018-11-22T13:03:37.437Z,14.402466
2018-11-22T13:03:58.151Z,14.422607
2018-11-22T13:04:17.782Z,14.402466
2018-11-22T13:04:37.511Z,14.432678
2018-11-22T13:04:57.187Z,14.422607
2018-11-22T13:05:16.829Z,14.45282
2018-11-22T13:05:36.435Z,14.45282
2018-11-22T13:05:56.053Z,14.462891
2018-11-22T13:06:15.670Z,14.45282
2018-11-22T13:06:35.268Z,14.472961
2018-11-22T13:06:54.924Z,14.432678
2018-11-22T13:07:14.774Z,14.422607
2018-11-22T13:07:34.588Z,14.422607
2018-11-22T13:07:54.192Z,14.432678
2018-11-22T13:08:14.045Z,14.392395
2018-11-22T13:08:33.685Z,14.422607
2018-11-22T13:08:53.431Z,14.402466
2018-11-22T13:09:13.183Z,14.402466
2018-11-22T13:09:33.038Z,14.392395
2018-11-22T13:09:52.676Z,14.392395
2018-11-22T13:10:12.493Z,14.402466
2018-11-22T13:10:32.297Z,14.402466
2018-11-22T13:10:52.017Z,14.422607
2018-11-22T13:11:11.626Z,14.432678
2018-11-22T13:11:32.216Z,14.402466
2018-11-22T13:11:51.832Z,14.392395
2018-11-22T13:12:11.440Z,14.422607
2018-11-22T13:12:31.118Z,14.422607
2018-11-22T13:12:50.750Z,14.422607
2018-11-22T13:13:10.396Z,14.432678
2018-11-22T13:13:30.022Z,14.402466
2018-11-22T13:13:49.685Z,14.392395
2018-11-22T13:14:09.402Z,14.402466
2018-11-22T13:14:29.036Z,14.392395
2018-11-22T13:14:48.642Z,14.422607
2018-11-22T13:15:08.299Z,14.422607
2018-11-22T13:15:27.961Z,14.402466
2018-11-22T13:15:47.625Z,14.422607
2018-11-22T13:16:07.573Z,14.45282
2018-11-22T13:16:27.259Z,14.422607
2018-11-22T13:16:47.022Z,14.432678
2018-11-22T13:17:06.641Z,14.422607
2018-11-22T13:17:26.300Z,14.422607
2018-11-22T13:17:46.158Z,14.422607
2018-11-22T13:18:06.037Z,14.422607
2018-11-22T13:18:26.074Z,14.432678
2018-11-22T13:18:46.040Z,14.402466
2018-11-22T13:19:07.312Z,14.432678
2018-11-22T13:19:27.336Z,14.432678
2018-11-22T13:19:47.003Z,14.422607
2018-11-22T13:20:06.885Z,14.372253
2018-11-22T13:20:26.565Z,14.392395
2018-11-22T13:20:46.237Z,14.372253
2018-11-22T13:21:06.007Z,14.392395
2018-11-22T13:21:25.824Z,14.362183
2018-11-22T13:21:45.613Z,14.372253
2018-11-22T13:22:05.290Z,14.372253
2018-11-22T13:22:25.177Z,14.33197
2018-11-22T13:22:44.993Z,14.291687
2018-11-22T13:23:04.739Z,14.33197
2018-11-22T13:23:24.675Z,14.321899
2018-11-22T13:23:45.361Z,14.321899
2018-11-22T13:24:05.092Z,14.281616
2018-11-22T13:24:24.708Z,14.352112
2018-11-22T13:24:44.361Z,14.321899
2018-11-22T13:25:04.010Z,14.321899
2018-11-22T13:25:24.724Z,14.321899
2018-11-22T13:25:45.525Z,14.291687
2018-11-22T13:26:06.422Z,14.281616
2018-11-22T13:26:26.572Z,14.291687
2018-11-22T13:26:46.910Z,14.281616
2018-11-22T13:27:07.479Z,14.291687
2018-11-22T13:27:28.161Z,14.291687
2018-11-22T13:27:49.138Z,14.281616
2018-11-22T13:28:09.148Z,14.281616
2018-11-22T13:28:29.276Z,14.291687
2018-11-22T13:28:49.174Z,14.321899
2018-11-22T13:29:09.529Z,14.321899
2018-11-22T13:29:30.214Z,14.321899
2018-11-22T13:29:50.144Z,14.321899
2018-11-22T13:30:11.578Z,14.321899
2018-11-22T13:30:31.681Z,14.33197
2018-11-22T13:30:51.509Z,14.291687
2018-11-22T13:31:11.632Z,14.291687
2018-11-22T13:31:32.075Z,14.33197
2018-11-22T13:31:55.576Z,14.33197
2018-11-22T13:32:21.344Z,14.352112
2018-11-22T13:32:40.377Z,14.33197
2018-11-22T13:33:02.607Z,14.33197
2018-11-22T13:33:24.503Z,14.362183
2018-11-22T13:33:44.764Z,14.352112
2018-11-22T13:34:04.963Z,14.362183
2018-11-22T13:34:25.164Z,14.362183
2018-11-22T13:34:45.052Z,14.362183
2018-11-22T13:35:04.960Z,14.33197
2018-11-22T13:35:25.242Z,14.352112
2018-11-22T13:35:45.443Z,14.352112
2018-11-22T13:36:05.141Z,14.352112
2018-11-22T13:36:25.285Z,14.352112
2018-11-22T13:36:45.533Z,14.352112
2018-11-22T13:37:05.817Z,14.33197
2018-11-22T13:37:25.591Z,14.33197
2018-11-22T13:37:45.527Z,14.33197
2018-11-22T13:38:05.482Z,14.321899
2018-11-22T13:38:25.191Z,14.33197
2018-11-22T13:38:45.164Z,14.321899
2018-11-22T13:39:05.001Z,14.291687
2018-11-22T13:39:24.738Z,14.321899
2018-11-22T13:39:44.362Z,14.291687
2018-11-22T13:40:03.984Z,14.291687
2018-11-22T13:40:23.621Z,14.281616
2018-11-22T13:40:43.241Z,14.321899
2018-11-22T13:41:02.905Z,14.251404
2018-11-22T13:41:22.561Z,14.281616
2018-11-22T13:41:42.219Z,14.271545
2018-11-22T13:42:01.835Z,14.271545
2018-11-22T13:42:21.488Z,14.271545
2018-11-22T13:42:41.205Z,14.281616
2018-11-22T13:43:00.861Z,14.251404
2018-11-22T13:43:20.516Z,14.281616
2018-11-22T13:43:40.173Z,14.271545
2018-11-22T13:43:59.806Z,14.271545
2018-11-22T13:44:19.455Z,14.271545
2018-11-22T13:44:39.132Z,14.271545
2018-11-22T13:44:58.775Z,14.281616
2018-11-22T13:45:18.538Z,14.281616
2018-11-22T13:45:38.176Z,14.281616
2018-11-22T13:45:57.812Z,14.281616
2018-11-22T13:46:17.481Z,14.281616
2018-11-22T13:46:37.154Z,14.281616
2018-11-22T13:46:56.795Z,14.281616
2018-11-22T13:47:16.431Z,14.281616
2018-11-22T13:47:36.203Z,14.291687
2018-11-22T13:47:55.937Z,14.321899
2018-11-22T13:48:15.640Z,14.291687
2018-11-22T13:48:35.271Z,14.291687
2018-11-22T13:48:55.883Z,14.321899
2018-11-22T13:49:15.590Z,14.321899
2018-11-22T13:49:35.228Z,14.321899
2018-11-22T13:49:54.855Z,14.321899
2018-11-22T13:50:14.510Z,14.321899
2018-11-22T13:50:34.135Z,14.291687
2018-11-22T13:50:55.719Z,14.321899
2018-11-22T13:51:15.357Z,14.291687
2018-11-22T13:51:34.980Z,14.281616
2018-11-22T13:51:54.626Z,14.281616
2018-11-22T13:52:14.333Z,14.281616
2018-11-22T13:52:37.231Z,14.281616
2018-11-22T13:52:55.638Z,14.271545
2018-11-22T13:53:20.383Z,14.271545
2018-11-22T13:53:36.903Z,14.251404
2018-11-22T13:53:56.516Z,14.251404
2018-11-22T13:54:16.131Z,14.251404
2018-11-22T13:54:35.780Z,14.271545
2018-11-22T13:54:55.413Z,14.271545
2018-11-22T13:55:15.043Z,14.251404
2018-11-22T13:55:35.814Z,14.221191
2018-11-22T13:55:55.478Z,14.241333
2018-11-22T13:56:15.118Z,14.221191
2018-11-22T13:56:34.804Z,14.221191
2018-11-22T13:56:54.531Z,14.221191
2018-11-22T13:57:14.234Z,14.241333
2018-11-22T13:57:33.976Z,14.251404
2018-11-22T13:57:53.656Z,14.251404
2018-11-22T13:58:14.303Z,14.241333
2018-11-22T13:58:33.939Z,14.241333
2018-11-22T13:58:53.599Z,14.221191
2018-11-22T13:59:13.242Z,14.241333
2018-11-22T13:59:32.871Z,14.211121
2018-11-22T13:59:58.152Z,14.221191
2018-11-22T14:00:15.188Z,14.211121
2018-11-22T14:00:34.859Z,14.221191
2018-11-22T14:00:54.491Z,14.241333
2018-11-22T14:01:14.133Z,14.221191
2018-11-22T14:01:33.782Z,14.221191
2018-11-22T14:01:53.442Z,14.211121
2018-11-22T14:02:13.076Z,14.211121
2018-11-22T14:02:33.350Z,14.221191
2018-11-22T14:02:53.049Z,14.221191
2018-11-22T14:03:12.712Z,14.241333
2018-11-22T14:03:32.337Z,14.241333
2018-11-22T14:03:52.047Z,14.221191
2018-11-22T14:04:11.719Z,14.211121
2018-11-22T14:04:32.514Z,14.241333
2018-11-22T14:04:52.144Z,14.241333
2018-11-22T14:05:11.821Z,14.221191
2018-11-22T14:05:31.417Z,14.221191
2018-11-22T14:05:51.195Z,14.241333
2018-11-22T14:06:11.654Z,14.241333
2018-11-22T14:06:31.270Z,14.221191
2018-11-22T14:06:50.885Z,14.211121
2018-11-22T14:07:11.498Z,14.221191
2018-11-22T14:07:31.116Z,14.20105
2018-11-22T14:07:50.794Z,14.221191
2018-11-22T14:08:10.567Z,14.221191
2018-11-22T14:08:30.209Z,14.221191
2018-11-22T14:08:49.826Z,14.211121
2018-11-22T14:09:09.785Z,14.211121
2018-11-22T14:09:29.554Z,14.221191
2018-11-22T14:09:49.449Z,14.241333
2018-11-22T14:10:09.154Z,14.221191
2018-11-22T14:10:28.764Z,14.221191
2018-11-22T14:10:48.419Z,14.211121
2018-11-22T14:11:13.509Z,14.221191
2018-11-22T14:11:31.669Z,14.221191
2018-11-22T14:11:51.338Z,14.221191
2018-11-22T14:12:10.970Z,14.211121
2018-11-22T14:12:31.051Z,14.20105
2018-11-22T14:12:50.852Z,14.20105
2018-11-22T14:13:10.538Z,14.211121
2018-11-22T14:13:30.162Z,14.170837
2018-11-22T14:13:49.795Z,14.180908
2018-11-22T14:14:09.483Z,14.180908
2018-11-22T14:14:29.359Z,14.20105
2018-11-22T14:14:49.007Z,14.20105
2018-11-22T14:15:08.654Z,14.211121
2018-11-22T14:15:29.254Z,14.180908
2018-11-22T14:15:49.033Z,14.180908
2018-11-22T14:16:08.649Z,14.180908
2018-11-22T14:16:28.295Z,14.180908
2018-11-22T14:16:48.026Z,14.170837
2018-11-22T14:17:07.731Z,14.180908
2018-11-22T14:17:27.427Z,14.20105
2018-11-22T14:17:47.058Z,14.180908
2018-11-22T14:18:06.803Z,14.170837
2018-11-22T14:18:26.418Z,14.211121
2018-11-22T14:18:46.059Z,14.180908
2018-11-22T14:19:06.330Z,14.170837
2018-11-22T14:19:25.991Z,14.180908
2018-11-22T14:19:45.661Z,14.20105
2018-11-22T14:20:05.314Z,14.180908
2018-11-22T14:20:25.020Z,14.170837
2018-11-22T14:20:44.655Z,14.170837
2018-11-22T14:21:04.300Z,14.180908
2018-11-22T14:21:23.973Z,14.180908
2018-11-22T14:21:43.676Z,14.180908
2018-11-22T14:22:03.394Z,14.180908
2018-11-22T14:22:23.030Z,14.180908
2018-11-22T14:22:42.673Z,14.150696
2018-11-22T14:23:02.382Z,14.170837
2018-11-22T14:23:22.071Z,14.150696
2018-11-22T14:23:41.703Z,14.150696
2018-11-22T14:24:01.399Z,14.150696
2018-11-22T14:24:22.791Z,14.150696
2018-11-22T14:24:42.360Z,14.170837
2018-11-22T14:25:02.080Z,14.170837